createdAt,value
2018-02-15T00:00:08.064Z,86.27
2018-02-15T00:02:35.456Z,86.87
2018-02-15T00:05:02.850Z,98.60
2018-02-15T00:07:30.264Z,106.17
2018-02-15T00:09:58.187Z,94.30
2018-02-15T00:12:25.782Z,97.40
2018-02-15T00:14:53.150Z,92.83
2018-02-15T00:17:20.611Z,89.87
2018-02-15T00:19:47.990Z,91.43
2018-02-15T00:22:15.342Z,97.63
2018-02-15T00:24:42.737Z,92.13
2018-02-15T00:27:10.092Z,95.57
2018-02-15T00:29:37.467Z,88.53
2018-02-15T00:32:04.877Z,106.87
2018-02-15T00:34:33.116Z,92.63
2018-02-15T00:37:00.477Z,87.83
2018-02-15T00:39:27.878Z,105.90
2018-02-15T00:41:55.341Z,91.43
2018-02-15T00:44:22.709Z,92.33
2018-02-15T00:46:50.908Z,106.40
2018-02-15T00:49:18.297Z,85.13
2018-02-15T00:51:45.704Z,97.90
2018-02-15T00:54:13.064Z,113.33
2018-02-15T00:56:40.452Z,90.00
2018-02-15T00:59:07.861Z,98.97
2018-02-15T01:01:35.212Z,83.97
2018-02-15T01:04:02.565Z,98.13
2018-02-15T01:06:29.956Z,104.83
2018-02-15T01:08:57.325Z,110.80
2018-02-15T01:11:24.732Z,92.17
2018-02-15T01:13:52.102Z,112.27
2018-02-15T01:16:19.496Z,109.63
2018-02-15T01:18:46.896Z,108.07
2018-02-15T01:21:14.264Z,104.07
2018-02-15T01:23:41.658Z,101.63
2018-02-15T01:26:09.082Z,100.13
2018-02-15T01:28:36.533Z,115.10
2018-02-15T01:31:04.505Z,100.40
2018-02-15T01:33:31.917Z,119.03
2018-02-15T01:35:59.338Z,120.47
2018-02-15T01:38:26.725Z,111.73
2018-02-15T01:40:54.125Z,121.53
2018-02-15T01:43:21.497Z,128.30
2018-02-15T01:45:48.900Z,98.43
2018-02-15T01:48:16.260Z,111.73
2018-02-15T01:50:43.633Z,115.73
2018-02-15T01:53:11.050Z,124.93
2018-02-15T01:55:38.413Z,128.70
2018-02-15T01:58:05.797Z,115.27
2018-02-15T02:00:33.212Z,138.83
2018-02-15T02:03:00.580Z,140.00
2018-02-15T02:05:27.960Z,120.07
2018-02-15T02:07:55.390Z,132.63
2018-02-15T02:10:22.752Z,118.37
2018-02-15T02:12:50.145Z,131.47
2018-02-15T02:15:17.510Z,142.50
2018-02-15T02:17:44.881Z,122.23
2018-02-15T02:20:12.274Z,135.17
2018-02-15T02:22:39.648Z,106.10
2018-02-15T02:25:07.042Z,131.90
2018-02-15T02:27:34.437Z,98.77
2018-02-15T02:30:01.852Z,111.77
2018-02-15T02:32:29.256Z,108.10
2018-02-15T02:34:56.621Z,115.50
2018-02-15T02:37:24.018Z,92.83
2018-02-15T02:39:51.408Z,103.03
2018-02-15T02:42:18.774Z,106.27
2018-02-15T02:44:46.156Z,105.83
2018-02-15T02:47:13.549Z,104.27
2018-02-15T02:49:40.969Z,97.17
2018-02-15T02:52:08.325Z,99.43
2018-02-15T02:54:35.688Z,93.07
2018-02-15T02:57:03.082Z,98.17
2018-02-15T02:59:30.437Z,92.97
2018-02-15T03:01:57.825Z,90.00
2018-02-15T03:04:25.222Z,112.23
2018-02-15T03:06:52.634Z,93.50
2018-02-15T03:09:20.035Z,95.80
2018-02-15T03:11:47.401Z,90.10
2018-02-15T03:14:14.766Z,109.07
2018-02-15T03:16:42.165Z,101.73
2018-02-15T03:19:09.580Z,101.67
2018-02-15T03:21:36.946Z,104.57
2018-02-15T03:24:04.300Z,98.00
2018-02-15T03:26:31.693Z,108.43
2018-02-15T03:28:59.062Z,100.43
2018-02-15T03:31:26.462Z,104.30
2018-02-15T03:33:53.826Z,106.63
2018-02-15T03:36:21.188Z,107.37
2018-02-15T03:38:48.579Z,97.60
2018-02-15T03:41:15.928Z,96.23
2018-02-15T03:43:43.345Z,100.40
2018-02-15T03:46:10.758Z,114.67
2018-02-15T03:48:38.121Z,108.67
2018-02-15T03:51:05.513Z,94.80
2018-02-15T03:53:32.882Z,118.30
2018-02-15T03:56:00.252Z,108.33
2018-02-15T03:58:27.642Z,104.03
2018-02-15T04:00:55.033Z,102.73
2018-02-15T04:03:22.397Z,102.73
2018-02-15T04:05:49.825Z,116.30
2018-02-15T04:08:17.190Z,117.00
2018-02-15T04:10:44.554Z,116.10
2018-02-15T04:13:11.952Z,117.30
2018-02-15T04:15:39.318Z,119.47
2018-02-15T04:18:06.689Z,108.70
2018-02-15T04:20:34.095Z,120.13
2018-02-15T04:23:01.499Z,115.47
2018-02-15T04:25:28.857Z,129.13
2018-02-15T04:27:56.265Z,114.50
2018-02-15T04:30:23.633Z,119.33
2018-02-15T04:32:50.998Z,103.97
2018-02-15T04:35:18.392Z,103.97
2018-02-15T04:37:45.783Z,124.27
2018-02-15T04:40:13.193Z,108.70
2018-02-15T04:42:40.553Z,105.47
2018-02-15T04:45:07.929Z,112.03
2018-02-15T04:47:35.421Z,118.63
2018-02-15T04:50:03.291Z,119.77
2018-02-15T04:52:30.694Z,104.03
2018-02-15T04:54:58.101Z,111.33
2018-02-15T04:57:25.472Z,110.27
2018-02-15T04:59:52.836Z,111.13
2018-02-15T05:02:20.222Z,108.37
2018-02-15T05:04:47.609Z,109.43
2018-02-15T05:07:15.009Z,106.87
2018-02-15T05:09:42.366Z,84.77
2018-02-15T05:12:09.724Z,100.53
2018-02-15T05:14:37.117Z,103.10
2018-02-15T05:17:04.478Z,94.37
2018-02-15T05:19:31.829Z,96.70
2018-02-15T05:21:59.231Z,102.10
2018-02-15T05:24:26.593Z,87.87
2018-02-15T05:26:53.977Z,93.53
2018-02-15T05:29:21.349Z,76.67
2018-02-15T05:31:48.745Z,85.77
2018-02-15T05:34:16.109Z,89.23
2018-02-15T05:36:43.463Z,91.60
2018-02-15T05:39:10.860Z,85.90
2018-02-15T05:41:38.262Z,93.27
2018-02-15T05:44:05.620Z,87.20
2018-02-15T05:46:33.002Z,87.80
2018-02-15T05:49:00.405Z,91.07
2018-02-15T05:51:27.765Z,83.30
2018-02-15T05:53:55.809Z,101.70
2018-02-15T05:56:23.213Z,92.00
2018-02-15T05:58:50.577Z,86.53
2018-02-15T06:01:17.937Z,94.30
2018-02-15T06:03:45.329Z,86.43
2018-02-15T06:06:12.721Z,90.07
2018-02-15T06:08:40.286Z,79.43
2018-02-15T06:11:07.711Z,77.53
2018-02-15T06:13:36.336Z,79.17
2018-02-15T06:16:03.726Z,88.20
2018-02-15T06:18:31.142Z,81.80
2018-02-15T06:20:58.546Z,81.23
2018-02-15T06:23:25.958Z,89.67
2018-02-15T06:25:53.349Z,85.00
2018-02-15T06:28:20.841Z,93.03
2018-02-15T06:30:48.238Z,97.07
2018-02-15T06:33:15.642Z,86.00
2018-02-15T06:35:43.073Z,85.77
2018-02-15T06:38:10.496Z,93.47
2018-02-15T06:40:37.886Z,89.10
2018-02-15T06:43:05.310Z,91.40
2018-02-15T06:45:32.745Z,92.27
2018-02-15T06:48:00.166Z,99.27
2018-02-15T06:50:27.553Z,99.17
2018-02-15T06:52:54.989Z,101.47
2018-02-15T06:55:22.381Z,86.33
2018-02-15T06:57:49.809Z,90.27
2018-02-15T07:00:17.227Z,86.87
2018-02-15T07:02:44.613Z,88.67
2018-02-15T07:05:12.042Z,83.97
2018-02-15T07:07:39.450Z,80.80
2018-02-15T07:10:06.854Z,82.47
2018-02-15T07:12:34.266Z,76.90
2018-02-15T07:15:01.766Z,85.00
2018-02-15T07:17:29.279Z,81.67
2018-02-15T07:19:56.742Z,83.33
2018-02-15T07:22:24.131Z,80.00
2018-02-15T07:24:51.557Z,72.60
2018-02-15T07:27:19.024Z,86.87
2018-02-15T07:29:46.461Z,82.47
2018-02-15T07:32:13.850Z,86.10
2018-02-15T07:34:41.244Z,77.37
2018-02-15T07:37:08.675Z,86.03
2018-02-15T07:39:36.070Z,83.33
2018-02-15T07:42:03.459Z,85.37
2018-02-15T07:44:30.891Z,78.27
2018-02-15T07:46:58.287Z,83.37
2018-02-15T07:49:25.771Z,87.80
2018-02-15T07:51:53.214Z,93.83
2018-02-15T07:54:20.640Z,76.93
2018-02-15T07:56:48.038Z,78.70
2018-02-15T07:59:15.482Z,75.20
2018-02-15T08:01:42.870Z,77.80
2018-02-15T08:04:10.258Z,88.63
2018-02-15T08:06:37.749Z,85.27
2018-02-15T08:09:05.179Z,80.17
2018-02-15T08:11:32.591Z,80.73
2018-02-15T08:14:00.031Z,86.27
2018-02-15T08:16:27.478Z,85.83
2018-02-15T08:18:54.889Z,81.83
2018-02-15T08:21:22.327Z,80.57
2018-02-15T08:23:49.715Z,82.60
2018-02-15T08:26:17.142Z,72.27
2018-02-15T08:28:44.565Z,75.03
2018-02-15T08:31:11.983Z,85.63
2018-02-15T08:33:39.470Z,86.00
2018-02-15T08:36:06.890Z,90.30
2018-02-15T08:38:34.355Z,82.30
2018-02-15T08:41:01.770Z,88.23
2018-02-15T08:43:29.297Z,78.83
2018-02-15T08:45:56.688Z,73.20
2018-02-15T08:48:24.079Z,81.30
2018-02-15T08:50:51.510Z,81.30
2018-02-15T08:53:18.921Z,75.17
2018-02-15T08:55:46.305Z,70.20
2018-02-15T08:58:13.806Z,79.53
2018-02-15T09:00:41.234Z,69.10
2018-02-15T09:03:08.691Z,80.83
2018-02-15T09:05:36.129Z,70.40
2018-02-15T09:08:03.517Z,69.43
2018-02-15T09:10:30.902Z,72.10
2018-02-15T09:12:58.318Z,68.57
2018-02-15T09:15:25.755Z,72.33
2018-02-15T09:17:53.154Z,71.10
2018-02-15T09:20:20.550Z,63.97
2018-02-15T09:22:47.982Z,63.83
2018-02-15T09:25:15.389Z,73.70
2018-02-15T09:27:42.777Z,57.73
2018-02-15T09:30:10.214Z,64.33
2018-02-15T09:32:37.630Z,62.80
2018-02-15T09:35:05.018Z,62.50
2018-02-15T09:37:32.446Z,62.30
2018-02-15T09:39:59.838Z,59.63
2018-02-15T09:42:27.346Z,66.83
2018-02-15T09:44:54.801Z,64.60
2018-02-15T09:47:22.233Z,66.70
2018-02-15T09:49:49.622Z,64.40
2018-02-15T09:52:17.049Z,64.97
2018-02-15T09:54:44.497Z,58.47
2018-02-15T09:57:11.986Z,59.83
2018-02-15T09:59:39.418Z,55.23
2018-02-15T10:02:06.971Z,61.00
2018-02-15T10:04:34.395Z,57.63
2018-02-15T10:07:01.820Z,61.83
2018-02-15T10:09:32.996Z,60.07
2018-02-15T10:12:03.662Z,55.17
2018-02-15T10:14:31.050Z,65.73
2018-02-15T10:16:58.438Z,67.80
2018-02-15T10:19:25.871Z,61.03
2018-02-15T10:21:53.317Z,62.17
2018-02-15T10:24:20.706Z,66.13
2018-02-15T10:26:48.225Z,62.33
2018-02-15T10:29:15.613Z,58.37
2018-02-15T10:31:43.006Z,57.07
2018-02-15T10:34:10.433Z,55.27
2018-02-15T10:36:37.838Z,62.00
2018-02-15T10:39:05.246Z,61.10
2018-02-15T10:41:32.658Z,53.83
2018-02-15T10:44:00.062Z,55.53
2018-02-15T10:46:27.486Z,60.07
2018-02-15T10:48:54.878Z,60.80
2018-02-15T10:51:22.286Z,53.50
2018-02-15T10:53:49.742Z,60.90
2018-02-15T10:56:17.133Z,57.73
2018-02-15T10:58:44.560Z,55.30
2018-02-15T11:01:17.733Z,60.10
2018-02-15T11:03:45.136Z,52.73
2018-02-15T11:06:12.538Z,54.80
2018-02-15T11:08:39.977Z,52.13
2018-02-15T11:11:07.362Z,50.37
2018-02-15T11:13:34.792Z,53.53
2018-02-15T11:16:02.206Z,55.23
2018-02-15T11:18:29.603Z,49.53
2018-02-15T11:20:57.167Z,55.77
2018-02-15T11:23:24.555Z,54.57
2018-02-15T11:25:51.943Z,56.13
2018-02-15T11:28:19.381Z,58.07
2018-02-15T11:30:46.769Z,54.67
2018-02-15T11:33:14.170Z,53.90
2018-02-15T11:35:41.581Z,55.07
2018-02-15T11:38:08.978Z,47.30
2018-02-15T11:40:36.418Z,50.97
2018-02-15T11:43:03.854Z,59.50
2018-02-15T11:45:31.332Z,56.77
2018-02-15T11:47:58.813Z,55.20
2018-02-15T11:50:26.374Z,50.17
2018-02-15T11:52:53.771Z,53.37
2018-02-15T11:55:21.174Z,63.47
2018-02-15T11:57:48.585Z,54.43
2018-02-15T12:00:15.975Z,57.87
2018-02-15T12:02:43.402Z,56.80
2018-02-15T12:05:10.796Z,54.33
2018-02-15T12:07:38.182Z,57.43
2018-02-15T12:10:05.622Z,49.23
2018-02-15T12:12:33.014Z,55.23
2018-02-15T12:15:00.533Z,47.77
2018-02-15T12:17:27.957Z,58.30
2018-02-15T12:19:55.451Z,50.93
2018-02-15T12:22:22.978Z,62.83
2018-02-15T12:24:50.419Z,72.13
2018-02-15T12:27:17.814Z,55.87
2018-02-15T12:29:45.210Z,57.40
2018-02-15T12:32:12.681Z,58.67
2018-02-15T12:34:40.074Z,57.33
2018-02-15T12:37:07.493Z,55.73
2018-02-15T12:39:34.921Z,61.30
2018-02-15T12:42:02.359Z,51.43
2018-02-15T12:44:29.750Z,46.47
2018-02-15T12:46:57.274Z,55.47
2018-02-15T12:49:24.663Z,59.33
2018-02-15T12:51:52.057Z,62.03
2018-02-15T12:54:19.489Z,62.13
2018-02-15T12:56:46.894Z,54.10
2018-02-15T12:59:14.324Z,63.13
2018-02-15T13:01:41.745Z,60.60
2018-02-15T13:04:09.161Z,58.40
2018-02-15T13:06:36.557Z,65.17
2018-02-15T13:09:04.073Z,54.83
2018-02-15T13:11:31.481Z,59.13
2018-02-15T13:13:58.890Z,59.10
2018-02-15T13:16:32.238Z,57.70
2018-02-15T13:19:05.635Z,62.23
2018-02-15T13:21:33.034Z,58.20
2018-02-15T13:24:00.437Z,60.13
2018-02-15T13:26:27.951Z,61.80
2018-02-15T13:28:55.344Z,62.13
2018-02-15T13:31:22.760Z,56.47
2018-02-15T13:33:50.291Z,60.40
2018-02-15T13:36:17.734Z,70.53
2018-02-15T13:38:45.130Z,56.70
2018-02-15T13:41:12.558Z,62.73
2018-02-15T13:43:39.946Z,67.37
2018-02-15T13:46:07.333Z,61.73
2018-02-15T13:48:34.745Z,67.30
2018-02-15T13:51:02.145Z,68.83
2018-02-15T13:53:29.533Z,72.60
2018-02-15T13:55:56.978Z,61.50
2018-02-15T13:58:24.365Z,67.00
2018-02-15T14:00:51.834Z,66.50
2018-02-15T14:03:19.293Z,66.13
2018-02-15T14:05:46.682Z,69.37
2018-02-15T14:08:14.094Z,80.43
2018-02-15T14:10:41.514Z,63.23
2018-02-15T14:13:12.601Z,70.77
2018-02-15T14:15:40.131Z,61.37
2018-02-15T14:18:07.589Z,55.63
2018-02-15T14:20:35.017Z,67.50
2018-02-15T14:23:02.422Z,65.50
2018-02-15T14:25:29.813Z,59.50
2018-02-15T14:27:57.254Z,64.73
2018-02-15T14:30:24.691Z,69.80
2018-02-15T14:32:52.085Z,64.70
2018-02-15T14:35:19.473Z,61.10
2018-02-15T14:37:47.401Z,62.17
2018-02-15T14:40:14.797Z,64.43
2018-02-15T14:42:42.261Z,80.63
2018-02-15T14:45:09.689Z,69.63
2018-02-15T14:47:37.173Z,67.37
2018-02-15T14:50:04.566Z,67.03
2018-02-15T14:52:32.006Z,70.10
2018-02-15T14:54:59.397Z,68.03
2018-02-15T14:57:26.794Z,63.47
2018-02-15T14:59:54.214Z,67.43
2018-02-15T15:02:21.601Z,69.40
2018-02-15T15:04:49.067Z,71.17
2018-02-15T15:07:16.510Z,63.30
2018-02-15T15:09:43.934Z,71.83
2018-02-15T15:12:11.365Z,63.70
2018-02-15T15:14:38.785Z,60.00
2018-02-15T15:17:06.178Z,68.70
2018-02-15T15:19:33.634Z,62.13
2018-02-15T15:22:01.050Z,65.67
2018-02-15T15:24:28.622Z,62.73
2018-02-15T15:26:56.013Z,63.40
2018-02-15T15:29:23.413Z,59.20
2018-02-15T15:31:50.846Z,67.93
2018-02-15T15:34:18.245Z,67.47
2018-02-15T15:36:45.702Z,68.97
2018-02-15T15:39:13.123Z,64.63
2018-02-15T15:41:40.542Z,66.30
2018-02-15T15:44:07.934Z,62.83
2018-02-15T15:46:35.359Z,60.73
2018-02-15T15:49:02.750Z,66.33
2018-02-15T15:51:30.177Z,68.90
2018-02-15T15:53:57.603Z,65.27
2018-02-15T15:56:25.050Z,55.00
2018-02-15T15:58:52.487Z,58.43
2018-02-15T16:01:19.963Z,57.27
2018-02-15T16:03:47.453Z,52.57
2018-02-15T16:06:14.981Z,52.70
2018-02-15T16:08:42.383Z,55.83
2018-02-15T16:11:09.784Z,49.53
2018-02-15T16:13:37.351Z,51.17
2018-02-15T16:16:04.811Z,51.43
2018-02-15T16:18:32.194Z,49.87
2018-02-15T16:20:59.595Z,48.50
2018-02-15T16:23:27.012Z,77.20
2018-02-15T16:25:54.417Z,60.00
2018-02-15T16:28:21.846Z,58.03
2018-02-15T16:30:49.268Z,50.17
2018-02-15T16:33:16.658Z,59.07
2018-02-15T16:35:44.089Z,54.90
2018-02-15T16:38:11.549Z,46.13
2018-02-15T16:40:38.936Z,49.37
2018-02-15T16:43:06.453Z,51.87
2018-02-15T16:45:33.855Z,53.57
2018-02-15T16:48:01.253Z,47.80
2018-02-15T16:50:28.694Z,57.27
2018-02-15T16:52:56.105Z,50.93
2018-02-15T16:55:23.519Z,51.13
2018-02-15T16:57:50.954Z,44.10
2018-02-15T17:00:18.389Z,45.10
2018-02-15T17:02:45.774Z,49.07
2018-02-15T17:05:13.240Z,47.70
2018-02-15T17:07:40.631Z,44.17
2018-02-15T17:10:08.030Z,53.80
2018-02-15T17:12:35.530Z,53.30
2018-02-15T17:15:06.674Z,49.30
2018-02-15T17:17:34.058Z,51.17
2018-02-15T17:20:01.487Z,61.03
2018-02-15T17:22:28.938Z,50.37
2018-02-15T17:24:56.329Z,54.83
2018-02-15T17:27:23.713Z,58.30
2018-02-15T17:29:51.141Z,50.50
2018-02-15T17:32:18.567Z,50.07
2018-02-15T17:34:46.125Z,49.30
2018-02-15T17:37:13.734Z,43.80
2018-02-15T17:39:41.136Z,47.37
2018-02-15T17:42:09.351Z,44.13
2018-02-15T17:44:36.786Z,44.33
2018-02-15T17:47:04.303Z,46.60
2018-02-15T17:49:31.756Z,43.70
2018-02-15T17:51:59.145Z,40.63
2018-02-15T17:54:26.672Z,39.27
2018-02-15T17:56:54.130Z,40.10
2018-02-15T17:59:21.538Z,41.50
2018-02-15T18:01:48.942Z,40.70
2018-02-15T18:04:16.373Z,45.03
2018-02-15T18:06:43.771Z,42.63
2018-02-15T18:09:11.169Z,46.07
2018-02-15T18:11:38.701Z,44.13
2018-02-15T18:14:06.091Z,47.63
2018-02-15T18:16:36.995Z,41.60
2018-02-15T18:19:04.433Z,46.03
2018-02-15T18:21:31.906Z,39.50
2018-02-15T18:23:59.346Z,46.10
2018-02-15T18:26:26.773Z,46.67
2018-02-15T18:28:54.166Z,53.90
2018-02-15T18:31:21.553Z,45.33
2018-02-15T18:33:48.973Z,51.47
2018-02-15T18:36:16.441Z,45.00
2018-02-15T18:38:43.861Z,49.43
2018-02-15T18:41:11.251Z,52.70
2018-02-15T18:43:38.650Z,46.43
2018-02-15T18:46:06.094Z,48.17
2018-02-15T18:48:33.485Z,50.57
2018-02-15T18:51:01.097Z,44.47
2018-02-15T18:53:28.527Z,45.63
2018-02-15T18:55:55.919Z,43.67
2018-02-15T18:58:23.525Z,39.00
2018-02-15T19:00:50.990Z,45.67
2018-02-15T19:03:18.387Z,45.37
2018-02-15T19:05:45.933Z,43.50
2018-02-15T19:08:13.386Z,43.80
2018-02-15T19:10:40.787Z,49.20
2018-02-15T19:13:08.222Z,43.63
2018-02-15T19:15:35.606Z,44.20
2018-02-15T19:18:03.110Z,42.83
2018-02-15T19:20:30.565Z,45.13
2018-02-15T19:22:58.021Z,42.90
2018-02-15T19:25:25.459Z,44.57
2018-02-15T19:27:52.906Z,45.83
2018-02-15T19:30:20.297Z,45.67
2018-02-15T19:32:47.755Z,47.30
2018-02-15T19:35:15.215Z,42.90
2018-02-15T19:37:42.664Z,45.77
2018-02-15T19:40:10.110Z,43.60
2018-02-15T19:42:37.579Z,47.70
2018-02-15T19:45:04.966Z,45.83
2018-02-15T19:47:32.563Z,43.53
2018-02-15T19:50:00.031Z,46.27
2018-02-15T19:52:27.437Z,43.20
2018-02-15T19:54:54.933Z,40.20
2018-02-15T19:57:22.329Z,51.13
2018-02-15T19:59:49.747Z,45.63
2018-02-15T20:02:17.181Z,50.50
2018-02-15T20:04:44.630Z,47.00
2018-02-15T20:07:12.117Z,46.10
2018-02-15T20:09:39.563Z,51.17
2018-02-15T20:12:06.955Z,51.83
2018-02-15T20:14:34.341Z,45.20
2018-02-15T20:17:01.875Z,46.33
2018-02-15T20:19:29.402Z,50.43
2018-02-15T20:21:56.894Z,49.63
2018-02-15T20:24:24.321Z,47.13
2018-02-15T20:26:57.507Z,52.20
2018-02-15T20:29:24.998Z,47.70
2018-02-15T20:31:52.418Z,45.97
2018-02-15T20:34:19.908Z,53.07
2018-02-15T20:36:47.339Z,47.63
2018-02-15T20:39:20.686Z,47.10
2018-02-15T20:41:48.191Z,50.83
2018-02-15T20:44:15.606Z,50.47
2018-02-15T20:46:42.998Z,57.60
2018-02-15T20:49:16.294Z,54.40
2018-02-15T20:51:49.691Z,46.60
2018-02-15T20:54:22.710Z,48.20
2018-02-15T20:56:50.118Z,52.40
2018-02-15T20:59:17.530Z,54.83
2018-02-15T21:01:44.957Z,47.57
2018-02-15T21:04:12.379Z,59.87
2018-02-15T21:06:39.789Z,55.10
2018-02-15T21:09:07.222Z,49.60
2018-02-15T21:11:34.619Z,53.40
2018-02-15T21:14:02.026Z,51.00
2018-02-15T21:16:29.454Z,44.20
2018-02-15T21:18:56.940Z,54.87
2018-02-15T21:21:24.328Z,52.90
2018-02-15T21:23:51.757Z,44.37
2018-02-15T21:26:19.150Z,59.97
2018-02-15T21:28:46.542Z,49.43
2018-02-15T21:31:13.974Z,47.20
2018-02-15T21:33:41.374Z,51.90
2018-02-15T21:36:08.794Z,53.97
2018-02-15T21:38:36.222Z,52.43
2018-02-15T21:41:03.626Z,49.43
2018-02-15T21:43:31.063Z,51.80
2018-02-15T21:45:58.506Z,51.50
2018-02-15T21:48:25.894Z,55.53
2018-02-15T21:50:53.290Z,51.63
2018-02-15T21:53:20.729Z,53.37
2018-02-15T21:55:48.115Z,44.83
2018-02-15T21:58:15.505Z,50.10
2018-02-15T22:00:42.991Z,52.40
2018-02-15T22:03:10.389Z,51.47
2018-02-15T22:05:37.785Z,55.67
2018-02-15T22:08:05.214Z,56.30
2018-02-15T22:10:32.616Z,50.10
2018-02-15T22:13:00.004Z,54.13
2018-02-15T22:15:27.442Z,57.13
2018-02-15T22:17:54.796Z,57.73
2018-02-15T22:20:22.158Z,56.93
2018-02-15T22:22:49.566Z,48.00
2018-02-15T22:25:16.929Z,52.73
2018-02-15T22:27:44.295Z,50.90
2018-02-15T22:30:11.702Z,50.33
2018-02-15T22:32:39.067Z,53.33
2018-02-15T22:35:06.421Z,57.00
2018-02-15T22:37:33.809Z,48.30
2018-02-15T22:40:01.186Z,53.70
2018-02-15T22:42:28.567Z,56.93
2018-02-15T22:44:55.968Z,56.03
2018-02-15T22:47:23.389Z,53.77
2018-02-15T22:49:50.777Z,56.00
2018-02-15T22:52:18.185Z,53.93
2018-02-15T22:54:45.548Z,55.97
2018-02-15T22:57:12.912Z,58.87
2018-02-15T22:59:40.318Z,56.67
2018-02-15T23:02:07.669Z,57.87
2018-02-15T23:04:35.026Z,56.17
2018-02-15T23:07:02.404Z,50.27
2018-02-15T23:09:29.763Z,61.50
2018-02-15T23:11:57.150Z,58.40
2018-02-15T23:14:24.576Z,55.13
2018-02-15T23:16:51.935Z,54.17
2018-02-15T23:19:19.295Z,54.00
2018-02-15T23:21:46.682Z,61.20
2018-02-15T23:24:14.048Z,58.30
2018-02-15T23:26:41.400Z,52.83
2018-02-15T23:29:08.813Z,54.27
2018-02-15T23:31:36.165Z,50.77
2018-02-15T23:34:03.565Z,56.30
2018-02-15T23:36:30.952Z,55.90
2018-02-15T23:38:58.312Z,56.17
2018-02-15T23:41:25.733Z,56.07
2018-02-15T23:43:53.090Z,52.20
2018-02-15T23:46:20.457Z,52.80
2018-02-15T23:48:47.847Z,53.97
2018-02-15T23:51:15.204Z,53.37
2018-02-15T23:53:42.564Z,56.23
2018-02-15T23:56:09.973Z,59.33
2018-02-15T23:58:37.337Z,51.20
